Lentokenttä METAR

 

EFHK - Helsinki/Vantaa
Etäisyys sääasemasta: IKO 36km
Päivitetty: 20/10/2018 13:20
Selkeää
Selkeää
 Tuulen suunta Vaihteleva
Tuuli: Vaihteleva 1 m/s
Lämpötila: 8°C
Kastepiste: 6°C
Kosteus: 87%
Ilmanpaine: 1021 hPa
Yhteenveto: Selkeää
Näkyvyys: Suurempi kuin 10 km
2018/10/20 10:20 EFHK 201020Z VRB02KT CAVOK 08/06 Q1021 NOSIG
EETN - Tallinn, Estonia
Etäisyys sääasemasta: EKA 97km
Päivitetty: 20/10/2018 13:20
Selkeää
Selkeää
 Tuulen suunta ELO
Tuuli: ELO 2 m/s
Lämpötila: 10°C
Hyytävyys: 9°C
Kastepiste: 6°C
Kosteus: 76%
Ilmanpaine: 1021 hPa
Yhteenveto: Selkeää
Näkyvyys: Suurempi kuin 10 km
2018/10/20 10:20 EETN 201020Z 21004KT CAVOK 10/06 Q1021 NOSIG
 
EFTU - Turku
Etäisyys sääasemasta: LLU 119km
Päivitetty: 20/10/2018 13:20
Melko pilvistä
Melko pilvistä
 Tuulen suunta LO
Tuuli: LO 3 m/s
Lämpötila: 9°C
Hyytävyys: 7°C
Kastepiste: 7°C
Kosteus: 87%
Ilmanpaine: 1020 hPa
Pilvisyys: Melko pilvistä
Näkyvyys: 10 km
Pilviraja: Melko selkeää 1768 m
Melko pilvistä 2926 m
2018/10/20 10:20 EFTU 201020Z AUTO 23005KT 9999 FEW058/// BKN096/// 09/07 Q1020
EFLP - Lappeenranta
Etäisyys sääasemasta: IKO 227km
Päivitetty: 20/10/2018 13:20
Melko pilvistä
Melko pilvistä
 Tuulen suunta LO
Tuuli: LO 1 m/s
Pilvisyys: Melko pilvistä
Näkyvyys: 10 km
Pilviraja: Melko selkeää 91 m
Melko pilvistä 4389 m
2018/10/20 10:20 EFLP 201020Z AUTO 22002KT 9999 SCT003 BKN144 ///// Q////
 
EFJY - Jyvaskylä
Etäisyys sääasemasta: PKO 253km
Päivitetty: 20/10/2018 13:20
Selkeää
Selkeää
 Tuulen suunta IKA
Tuuli: IKA 2 m/s
Lämpötila: 4°C
Hyytävyys: 2°C
Kastepiste: 3°C
Kosteus: 93%
Ilmanpaine: 1019 hPa
Yhteenveto: Selkeää
Näkyvyys: Suurempi kuin 10 km
2018/10/20 10:20 EFJY 201020Z AUTO 11004KT CAVOK 04/03 Q1019
EFSA - Savonlinna
Etäisyys sääasemasta: KO 313km
Päivitetty: 20/10/2018 13:20
Melko pilvistä
Melko pilvistä
 Tuulen suunta Vaihteleva
Tuuli: Vaihteleva 1 m/s
Lämpötila: 5°C
Kastepiste: 4°C
Kosteus: 93%
Ilmanpaine: 1019 hPa
Pilvisyys: Melko pilvistä
Näkyvyys: 10 km
Pilviraja: Melko selkeää 152 m
Melko pilvistä 4755 m
2018/10/20 10:20 EFSA 201020Z AUTO VRB01KT 9999 FEW005 BKN156 05/04 Q1019
 
ESSA - Stockholm/Arlanda, Sweden
Etäisyys sääasemasta: L 363km
Päivitetty: 20/10/2018 13:20
Heikkoa tihkusadetta, Melko pilvistä
Heikkoa tihkusadetta, Melko pilvistä
 Tuulen suunta L
Tuuli: L 3 m/s
Lämpötila: 8°C
Hyytävyys: 6°C
Kastepiste: 7°C
Kosteus: 93%
Ilmanpaine: 1021 hPa
Yhteenveto: Heikkoa tihkusadetta
Pilvisyys: Melko pilvistä
Näkyvyys: 10 km
Pilviraja: Melko pilvistä 1372 m
2018/10/20 10:20 ESSA 201020Z 26005KT 9999 -DZ BKN045 08/07 Q1021 NOSIG
ESGG - Göteborg, Sweden
Etäisyys sääasemasta: LO 900km
Päivitetty: 20/10/2018 13:20
Melko selkeää
Melko selkeää
 Tuulen suunta PLU
Tuuli: PLU 2 m/s
Lämpötila: 11°C
Kastepiste: 7°C
Kosteus: 77%
Ilmanpaine: 1022 hPa
Pilvisyys: Melko selkeää
Näkyvyys: 10 km
Pilviraja: Melko selkeää 762 m
2018/10/20 10:20 ESGG 201020Z 34004KT 9999 FEW025 11/07 Q1022
 
ENGM - Oslo, Norway
Etäisyys sääasemasta: L 950km
Päivitetty: 20/10/2018 13:20
Sumua, Pilvistä
Sumua, Pilvistä
 Tuulen suunta Vaihteleva
Tuuli: Vaihteleva 1 m/s
Lämpötila: 2°C
Kastepiste: 2°C
Kosteus: 100%
Ilmanpaine: 1022 hPa
Yhteenveto: Sumua
Pilvisyys: Pilvistä
Näkyvyys: 1 km
Pilviraja: Pilvistä 30 m
2018/10/20 10:20 ENGM 201020Z VRB02KT 0600 R19R/P2000N R01R/0600U FG VV001 02/02 Q1022 TEMPO 1000 BCFG